createdAt,value
2017-08-29T00:00:57.336Z,7.37
2017-08-29T00:03:24.625Z,9.13
2017-08-29T00:05:51.927Z,12.40
2017-08-29T00:08:19.191Z,11.20
2017-08-29T00:10:46.467Z,8.60
2017-08-29T00:13:13.773Z,8.00
2017-08-29T00:15:41.048Z,13.17
2017-08-29T00:18:08.307Z,9.20
2017-08-29T00:20:35.627Z,12.00
2017-08-29T00:23:02.891Z,7.77
2017-08-29T00:25:30.183Z,7.27
2017-08-29T00:27:57.512Z,9.00
2017-08-29T00:30:24.808Z,8.80
2017-08-29T00:32:52.072Z,8.70
2017-08-29T00:35:19.383Z,15.23
2017-08-29T00:37:46.660Z,10.60
2017-08-29T00:40:13.992Z,12.53
2017-08-29T00:42:41.247Z,15.07
2017-08-29T00:45:08.541Z,10.33
2017-08-29T00:47:35.843Z,8.97
2017-08-29T00:50:03.144Z,15.87
2017-08-29T00:52:30.402Z,13.43
2017-08-29T00:54:57.724Z,13.20
2017-08-29T00:57:24.999Z,12.57
2017-08-29T00:59:52.303Z,12.67
2017-08-29T01:02:19.567Z,10.07
2017-08-29T01:04:46.823Z,8.70
2017-08-29T01:07:14.127Z,8.43
2017-08-29T01:09:41.391Z,12.57
2017-08-29T01:12:08.658Z,15.10
2017-08-29T01:14:35.950Z,9.43
2017-08-29T01:17:03.218Z,12.00
2017-08-29T01:19:30.510Z,12.13
2017-08-29T01:21:57.783Z,9.37
2017-08-29T01:24:25.078Z,11.53
2017-08-29T01:26:52.362Z,10.67
2017-08-29T01:29:19.622Z,13.80
2017-08-29T01:31:46.915Z,9.90
2017-08-29T01:34:14.531Z,13.03
2017-08-29T01:36:41.831Z,14.00
2017-08-29T01:39:09.093Z,8.60
2017-08-29T01:41:36.359Z,10.27
2017-08-29T01:44:03.678Z,11.93
2017-08-29T01:46:30.958Z,11.53
2017-08-29T01:48:58.280Z,14.43
2017-08-29T01:51:25.551Z,13.47
2017-08-29T01:53:52.889Z,12.30
2017-08-29T01:56:20.159Z,11.20
2017-08-29T01:58:47.443Z,12.03
2017-08-29T02:01:14.756Z,10.77
2017-08-29T02:03:42.043Z,11.73
2017-08-29T02:06:09.376Z,13.23
2017-08-29T02:08:36.700Z,14.00
2017-08-29T02:11:03.996Z,15.77
2017-08-29T02:13:31.268Z,13.27
2017-08-29T02:15:58.589Z,12.37
2017-08-29T02:18:25.879Z,16.43
2017-08-29T02:20:53.209Z,15.13
2017-08-29T02:23:20.570Z,15.40
2017-08-29T02:25:47.839Z,12.20
2017-08-29T02:28:15.129Z,11.17
2017-08-29T02:30:42.438Z,16.47
2017-08-29T02:33:09.716Z,11.43
2017-08-29T02:35:37.000Z,12.47
2017-08-29T02:38:04.330Z,14.37
2017-08-29T02:40:31.620Z,12.10
2017-08-29T02:42:58.897Z,11.43
2017-08-29T02:45:26.233Z,10.13
2017-08-29T02:47:53.511Z,13.47
2017-08-29T02:50:20.807Z,11.60
2017-08-29T02:52:48.116Z,11.03
2017-08-29T02:55:15.440Z,14.70
2017-08-29T02:57:42.692Z,11.47
2017-08-29T03:00:10.010Z,14.33
2017-08-29T03:02:37.316Z,15.60
2017-08-29T03:05:04.592Z,14.93
2017-08-29T03:07:31.876Z,13.60
2017-08-29T03:09:59.199Z,13.10
2017-08-29T03:12:26.478Z,11.10
2017-08-29T03:14:53.753Z,15.33
2017-08-29T03:17:21.055Z,14.63
2017-08-29T03:19:48.375Z,14.83
2017-08-29T03:22:15.703Z,14.93
2017-08-29T03:24:42.990Z,13.13
2017-08-29T03:27:10.295Z,13.77
2017-08-29T03:29:37.606Z,13.40
2017-08-29T03:32:04.899Z,15.73
2017-08-29T03:34:32.594Z,15.60
2017-08-29T03:36:59.891Z,13.53
2017-08-29T03:39:27.158Z,18.43
2017-08-29T03:41:54.482Z,17.47
2017-08-29T03:44:21.760Z,13.50
2017-08-29T03:46:49.075Z,12.90
2017-08-29T03:49:16.387Z,13.40
2017-08-29T03:51:43.676Z,12.20
2017-08-29T03:54:10.987Z,16.30
2017-08-29T03:56:38.295Z,14.97
2017-08-29T03:59:05.580Z,12.13
2017-08-29T04:01:32.889Z,16.10
2017-08-29T04:04:00.160Z,13.70
2017-08-29T04:06:27.479Z,15.43
2017-08-29T04:08:54.755Z,13.20
2017-08-29T04:11:22.059Z,17.70
2017-08-29T04:13:49.384Z,14.93
2017-08-29T04:16:16.670Z,13.07
2017-08-29T04:18:43.942Z,14.30
2017-08-29T04:21:11.238Z,17.60
2017-08-29T04:23:38.555Z,17.80
2017-08-29T04:26:05.867Z,16.70
2017-08-29T04:28:33.142Z,16.07
2017-08-29T04:31:00.439Z,17.17
2017-08-29T04:33:27.764Z,14.17
2017-08-29T04:35:55.047Z,16.23
2017-08-29T04:38:22.330Z,15.50
2017-08-29T04:40:49.631Z,13.87
2017-08-29T04:43:16.967Z,16.07
2017-08-29T04:45:44.247Z,15.60
2017-08-29T04:48:11.522Z,14.47
2017-08-29T04:50:38.839Z,15.63
2017-08-29T04:53:06.148Z,20.40
2017-08-29T04:55:33.448Z,15.50
2017-08-29T04:58:00.741Z,15.27
2017-08-29T05:00:28.018Z,13.00
2017-08-29T05:02:55.335Z,22.83
2017-08-29T05:05:22.612Z,13.83
2017-08-29T05:07:49.959Z,17.77
2017-08-29T05:10:17.264Z,19.33
2017-08-29T05:12:44.558Z,13.97
2017-08-29T05:15:11.860Z,14.53
2017-08-29T05:17:39.171Z,14.10
2017-08-29T05:20:06.864Z,18.73
2017-08-29T05:22:34.301Z,15.00
2017-08-29T05:25:01.619Z,15.20
2017-08-29T05:27:28.931Z,15.57
2017-08-29T05:29:56.207Z,15.10
2017-08-29T05:32:23.536Z,17.07
2017-08-29T05:34:50.803Z,15.43
2017-08-29T05:37:18.096Z,17.97
2017-08-29T05:39:45.401Z,24.63
2017-08-29T05:42:12.706Z,13.70
2017-08-29T05:44:39.983Z,15.10
2017-08-29T05:47:07.287Z,17.03
2017-08-29T05:49:34.579Z,14.00
2017-08-29T05:52:01.855Z,14.83
2017-08-29T05:54:29.163Z,16.13
2017-08-29T05:56:56.463Z,14.37
2017-08-29T05:59:23.742Z,13.77
2017-08-29T06:01:51.008Z,14.20
2017-08-29T06:04:18.312Z,15.70
2017-08-29T06:06:45.630Z,13.40
2017-08-29T06:09:12.895Z,13.47
2017-08-29T06:11:40.172Z,14.80
2017-08-29T06:14:07.471Z,17.13
2017-08-29T06:16:34.767Z,13.83
2017-08-29T06:19:02.070Z,13.93
2017-08-29T06:21:29.350Z,18.77
2017-08-29T06:23:56.634Z,15.93
2017-08-29T06:26:23.948Z,14.97
2017-08-29T06:28:51.215Z,14.60
2017-08-29T06:31:18.516Z,14.10
2017-08-29T06:33:45.782Z,13.90
2017-08-29T06:36:13.111Z,16.07
2017-08-29T06:38:40.375Z,15.77
2017-08-29T06:41:07.651Z,15.57
2017-08-29T06:43:34.971Z,16.47
2017-08-29T06:46:02.247Z,18.73
2017-08-29T06:48:29.522Z,18.83
2017-08-29T06:50:56.829Z,22.07
2017-08-29T06:53:24.104Z,15.37
2017-08-29T06:55:51.401Z,15.70
2017-08-29T06:58:18.705Z,15.00
2017-08-29T07:00:45.985Z,13.40
2017-08-29T07:03:13.327Z,14.03
2017-08-29T07:05:40.623Z,15.30
2017-08-29T07:08:07.910Z,13.63
2017-08-29T07:10:35.225Z,13.47
2017-08-29T07:13:02.534Z,13.50
2017-08-29T07:15:29.844Z,13.63
2017-08-29T07:17:57.134Z,18.03
2017-08-29T07:20:24.449Z,22.80
2017-08-29T07:22:51.771Z,20.50
2017-08-29T07:25:19.046Z,13.67
2017-08-29T07:27:46.336Z,12.60
2017-08-29T07:30:13.645Z,15.03
2017-08-29T07:32:40.935Z,13.37
2017-08-29T07:35:08.254Z,16.23
2017-08-29T07:37:35.591Z,11.97
2017-08-29T07:40:02.929Z,13.23
2017-08-29T07:42:30.212Z,12.87
2017-08-29T07:44:57.526Z,13.00
2017-08-29T07:47:24.799Z,14.57
2017-08-29T07:49:52.111Z,13.00
2017-08-29T07:52:19.401Z,16.07
2017-08-29T07:54:46.663Z,12.87
2017-08-29T07:57:13.979Z,14.03
2017-08-29T07:59:41.286Z,15.97
2017-08-29T08:02:08.568Z,15.57
2017-08-29T08:04:35.880Z,16.63
2017-08-29T08:07:03.151Z,18.03
2017-08-29T08:09:30.483Z,13.90
2017-08-29T08:11:57.781Z,13.60
2017-08-29T08:14:25.056Z,18.20
2017-08-29T08:16:52.452Z,14.17
2017-08-29T08:19:19.882Z,13.70
2017-08-29T08:21:47.203Z,11.80
2017-08-29T08:24:14.520Z,12.50
2017-08-29T08:26:41.803Z,12.47
2017-08-29T08:29:09.081Z,14.20
2017-08-29T08:31:36.515Z,14.27
2017-08-29T08:34:04.015Z,11.40
2017-08-29T08:36:31.340Z,12.77
2017-08-29T08:38:58.642Z,11.63
2017-08-29T08:41:25.943Z,12.77
2017-08-29T08:43:53.244Z,11.10
2017-08-29T08:46:20.507Z,12.20
2017-08-29T08:48:47.811Z,11.40
2017-08-29T08:51:15.084Z,10.43
2017-08-29T08:53:42.394Z,11.57
2017-08-29T08:56:09.691Z,10.50
2017-08-29T08:58:36.977Z,14.77
2017-08-29T09:01:04.296Z,12.13
2017-08-29T09:03:31.563Z,10.67
2017-08-29T09:05:58.827Z,11.17
2017-08-29T09:08:26.139Z,10.30
2017-08-29T09:10:53.406Z,9.50
2017-08-29T09:13:20.718Z,9.80
2017-08-29T09:15:47.992Z,13.03
2017-08-29T09:18:15.298Z,10.37
2017-08-29T09:20:42.611Z,10.33
2017-08-29T09:23:09.883Z,10.30
2017-08-29T09:25:37.163Z,10.07
2017-08-29T09:28:04.468Z,9.30
2017-08-29T09:30:31.739Z,10.00
2017-08-29T09:32:59.039Z,9.43
2017-08-29T09:35:26.327Z,10.40
2017-08-29T09:37:53.863Z,12.50
2017-08-29T09:40:21.165Z,11.63
2017-08-29T09:42:48.481Z,9.60
2017-08-29T09:45:15.747Z,10.83
2017-08-29T09:47:43.019Z,9.90
2017-08-29T09:50:10.329Z,12.13
2017-08-29T09:52:37.592Z,9.13
2017-08-29T09:55:04.878Z,9.97
2017-08-29T09:57:32.205Z,9.53
2017-08-29T09:59:59.459Z,9.90
2017-08-29T10:02:26.719Z,9.47
2017-08-29T10:04:54.023Z,10.40
2017-08-29T10:07:21.295Z,9.70
2017-08-29T10:09:48.580Z,13.00
2017-08-29T10:12:15.879Z,10.07
2017-08-29T10:14:43.143Z,9.57
2017-08-29T10:17:10.450Z,10.00
2017-08-29T10:19:37.723Z,10.37
2017-08-29T10:22:04.999Z,10.20
2017-08-29T10:24:32.295Z,11.33
2017-08-29T10:26:59.555Z,10.77
2017-08-29T10:29:26.846Z,9.77
2017-08-29T10:31:54.117Z,8.73
2017-08-29T10:34:21.410Z,8.83
2017-08-29T10:36:48.710Z,11.57
2017-08-29T10:39:15.976Z,9.50
2017-08-29T10:41:43.283Z,9.37
2017-08-29T10:44:10.544Z,9.90
2017-08-29T10:46:37.811Z,9.03
2017-08-29T10:49:05.096Z,10.33
2017-08-29T10:51:32.370Z,11.00
2017-08-29T10:53:59.686Z,11.33
2017-08-29T10:56:26.960Z,7.87
2017-08-29T10:58:54.223Z,8.57
2017-08-29T11:01:21.532Z,10.83
2017-08-29T11:03:48.802Z,8.33
2017-08-29T11:06:16.074Z,15.77
2017-08-29T11:08:43.366Z,7.87
2017-08-29T11:11:10.647Z,9.07
2017-08-29T11:13:37.935Z,8.97
2017-08-29T11:16:05.223Z,9.03
2017-08-29T11:18:32.498Z,13.23
2017-08-29T11:20:59.804Z,9.90
2017-08-29T11:23:27.078Z,8.80
2017-08-29T11:25:54.371Z,9.00
2017-08-29T11:28:21.632Z,9.30
2017-08-29T11:30:48.921Z,8.30
2017-08-29T11:33:16.227Z,11.37
2017-08-29T11:35:43.501Z,10.60
2017-08-29T11:38:10.770Z,9.90
2017-08-29T11:40:38.063Z,10.30
2017-08-29T11:43:05.361Z,8.00
2017-08-29T11:45:32.672Z,9.37
2017-08-29T11:47:59.943Z,9.27
2017-08-29T11:50:27.211Z,8.63
2017-08-29T11:52:54.511Z,9.57
2017-08-29T11:55:21.771Z,9.50
2017-08-29T11:57:49.043Z,9.27
2017-08-29T12:00:16.337Z,10.60
2017-08-29T12:02:43.642Z,11.33
2017-08-29T12:05:10.912Z,8.77
2017-08-29T12:07:38.180Z,11.97
2017-08-29T12:10:05.492Z,10.50
2017-08-29T12:12:32.760Z,8.80
2017-08-29T12:15:00.031Z,9.13
2017-08-29T12:17:27.340Z,9.40
2017-08-29T12:19:54.606Z,9.53
2017-08-29T12:22:21.862Z,9.53
2017-08-29T12:24:49.154Z,9.47
2017-08-29T12:27:16.418Z,9.87
2017-08-29T12:29:43.890Z,16.90
2017-08-29T12:32:11.160Z,7.90
2017-08-29T12:34:38.419Z,9.03
2017-08-29T12:37:05.711Z,9.67
2017-08-29T12:39:32.979Z,8.87
2017-08-29T12:42:00.288Z,6.90
2017-08-29T12:44:27.556Z,8.60
2017-08-29T12:46:54.821Z,14.03
2017-08-29T12:49:22.106Z,8.93
2017-08-29T12:51:49.376Z,9.47
2017-08-29T12:54:16.818Z,8.90
2017-08-29T12:56:45.310Z,9.53
2017-08-29T12:59:12.736Z,8.67
2017-08-29T13:01:40.127Z,10.23
2017-08-29T13:04:07.384Z,8.73
2017-08-29T13:06:34.771Z,8.47
2017-08-29T13:09:02.039Z,9.87
2017-08-29T13:11:29.305Z,8.10
2017-08-29T13:13:56.628Z,7.90
2017-08-29T13:16:24.423Z,8.70
2017-08-29T13:18:51.696Z,9.07
2017-08-29T13:21:19.256Z,9.47
2017-08-29T13:23:46.523Z,11.33
2017-08-29T13:26:13.785Z,8.67
2017-08-29T13:28:41.076Z,6.93
2017-08-29T13:31:08.351Z,8.50
2017-08-29T13:33:35.632Z,7.67
2017-08-29T13:36:02.900Z,7.90
2017-08-29T13:38:30.189Z,9.17
2017-08-29T13:40:57.459Z,7.23
2017-08-29T13:43:24.769Z,7.53
2017-08-29T13:45:52.060Z,7.10
2017-08-29T13:48:19.335Z,6.73
2017-08-29T13:50:46.625Z,6.97
2017-08-29T13:53:14.262Z,10.57
2017-08-29T13:55:41.672Z,7.13
2017-08-29T13:58:08.960Z,7.40
2017-08-29T14:00:36.228Z,8.60
2017-08-29T14:03:03.523Z,9.40
2017-08-29T14:05:30.826Z,10.33
2017-08-29T14:07:58.135Z,7.20
2017-08-29T14:10:25.395Z,9.90
2017-08-29T14:12:52.677Z,8.00
2017-08-29T14:15:19.952Z,8.93
2017-08-29T14:17:47.243Z,9.17
2017-08-29T14:20:14.534Z,7.33
2017-08-29T14:22:41.802Z,12.47
2017-08-29T14:25:09.072Z,9.73
2017-08-29T14:27:36.364Z,8.47
2017-08-29T14:30:03.630Z,8.53
2017-08-29T14:32:30.920Z,9.13
2017-08-29T14:34:58.179Z,11.73
2017-08-29T14:37:25.455Z,8.57
2017-08-29T14:39:52.746Z,7.93
2017-08-29T14:42:20.013Z,9.50
2017-08-29T14:44:47.315Z,7.43
2017-08-29T14:47:20.519Z,9.07
2017-08-29T14:49:47.802Z,9.23
2017-08-29T14:52:15.106Z,10.17
2017-08-29T14:54:42.401Z,8.13
2017-08-29T14:57:09.686Z,9.30
2017-08-29T14:59:36.951Z,7.97
2017-08-29T15:02:04.260Z,8.30
2017-08-29T15:04:31.533Z,11.20
2017-08-29T15:06:58.798Z,8.90
2017-08-29T15:09:26.092Z,9.30
2017-08-29T15:11:53.351Z,8.50
2017-08-29T15:14:20.641Z,9.53
2017-08-29T15:16:47.938Z,10.37
2017-08-29T15:19:15.202Z,11.93
2017-08-29T15:21:42.466Z,10.67
2017-08-29T15:24:09.764Z,8.30
2017-08-29T15:26:37.021Z,9.60
2017-08-29T15:29:04.315Z,11.67
2017-08-29T15:31:31.583Z,9.20
2017-08-29T15:33:58.871Z,11.43
2017-08-29T15:36:26.291Z,9.63
2017-08-29T15:38:53.586Z,12.00
2017-08-29T15:41:20.854Z,11.50
2017-08-29T15:43:48.159Z,12.40
2017-08-29T15:46:15.424Z,9.47
2017-08-29T15:48:42.692Z,10.67
2017-08-29T15:51:09.992Z,9.77
2017-08-29T15:53:37.253Z,12.57
2017-08-29T15:56:04.648Z,10.50
2017-08-29T15:58:31.912Z,9.70
2017-08-29T16:00:59.203Z,8.57
2017-08-29T16:03:26.504Z,9.90
2017-08-29T16:05:53.772Z,10.23
2017-08-29T16:08:21.041Z,9.37
2017-08-29T16:10:48.332Z,10.80
2017-08-29T16:13:15.621Z,17.33
2017-08-29T16:15:42.917Z,10.53
2017-08-29T16:18:10.175Z,9.90
2017-08-29T16:20:37.467Z,9.00
2017-08-29T16:23:04.735Z,13.60
2017-08-29T16:25:32.034Z,10.10
2017-08-29T16:27:59.332Z,9.50
2017-08-29T16:30:26.603Z,12.27
2017-08-29T16:32:53.903Z,8.30
2017-08-29T16:35:21.215Z,12.33
2017-08-29T16:37:48.488Z,10.73
2017-08-29T16:40:15.753Z,10.93
2017-08-29T16:42:43.056Z,11.57
2017-08-29T16:45:10.339Z,14.07
2017-08-29T16:47:37.643Z,10.93
2017-08-29T16:50:04.912Z,12.20
2017-08-29T16:52:32.184Z,11.70
2017-08-29T16:54:59.484Z,12.63
2017-08-29T16:57:26.781Z,13.40
2017-08-29T16:59:54.173Z,15.90
2017-08-29T17:02:21.443Z,15.17
2017-08-29T17:04:48.754Z,12.40
2017-08-29T17:07:16.022Z,14.03
2017-08-29T17:09:43.302Z,12.50
2017-08-29T17:12:10.615Z,14.83
2017-08-29T17:14:37.898Z,18.50
2017-08-29T17:17:05.175Z,11.57
2017-08-29T17:19:32.477Z,10.83
2017-08-29T17:21:59.763Z,15.67
2017-08-29T17:24:27.064Z,13.73
2017-08-29T17:26:54.332Z,11.70
2017-08-29T17:29:21.656Z,12.53
2017-08-29T17:31:48.932Z,14.20
2017-08-29T17:34:16.204Z,13.20
2017-08-29T17:36:43.536Z,12.50
2017-08-29T17:39:10.821Z,12.30
2017-08-29T17:41:38.152Z,12.33
2017-08-29T17:44:05.429Z,15.17
2017-08-29T17:46:32.734Z,12.87
2017-08-29T17:49:00.058Z,17.63
2017-08-29T17:51:27.330Z,12.87
2017-08-29T17:53:54.658Z,11.17
2017-08-29T17:56:22.020Z,12.90
2017-08-29T17:58:50.168Z,13.50
2017-08-29T18:01:17.444Z,10.60
2017-08-29T18:03:44.759Z,10.57
2017-08-29T18:06:12.036Z,14.77
2017-08-29T18:08:39.362Z,11.87
2017-08-29T18:11:06.632Z,16.73
2017-08-29T18:13:33.916Z,12.83
2017-08-29T18:16:01.329Z,14.07
2017-08-29T18:18:28.595Z,14.63
2017-08-29T18:20:55.871Z,11.07
2017-08-29T18:23:23.203Z,12.40
2017-08-29T18:25:50.483Z,11.53
2017-08-29T18:28:17.755Z,11.57
2017-08-29T18:30:45.092Z,13.20
2017-08-29T18:33:12.376Z,15.40
2017-08-29T18:35:39.663Z,15.13
2017-08-29T18:38:06.970Z,11.60
2017-08-29T18:40:34.234Z,12.10
2017-08-29T18:43:01.511Z,14.00
2017-08-29T18:45:28.811Z,14.27
2017-08-29T18:47:56.082Z,13.10
2017-08-29T18:50:23.390Z,13.20
2017-08-29T18:52:50.680Z,21.33
2017-08-29T18:55:17.972Z,18.33
2017-08-29T18:57:45.253Z,12.37
2017-08-29T19:00:12.544Z,11.57
2017-08-29T19:02:39.827Z,13.20
2017-08-29T19:05:07.127Z,15.30
2017-08-29T19:07:34.399Z,12.13
2017-08-29T19:10:01.699Z,11.50
2017-08-29T19:12:28.973Z,17.17
2017-08-29T19:14:56.272Z,13.40
2017-08-29T19:17:23.551Z,13.13
2017-08-29T19:19:50.843Z,12.27
2017-08-29T19:22:18.143Z,13.20
2017-08-29T19:24:45.419Z,18.00
2017-08-29T19:27:12.715Z,13.77
2017-08-29T19:29:39.985Z,11.90
2017-08-29T19:32:07.277Z,12.90
2017-08-29T19:34:34.560Z,15.53
2017-08-29T19:37:01.967Z,18.47
2017-08-29T19:39:29.247Z,16.47
2017-08-29T19:41:56.544Z,11.90
2017-08-29T19:44:23.819Z,15.03
2017-08-29T19:46:51.107Z,15.73
2017-08-29T19:49:18.379Z,16.83
2017-08-29T19:51:45.672Z,12.43
2017-08-29T19:54:12.956Z,14.63
2017-08-29T19:56:40.236Z,13.63
2017-08-29T19:59:07.515Z,13.00
2017-08-29T20:01:34.811Z,14.77
2017-08-29T20:04:02.096Z,12.30
2017-08-29T20:06:30.227Z,13.50
2017-08-29T20:08:57.522Z,13.30
2017-08-29T20:11:24.813Z,15.40
2017-08-29T20:13:52.101Z,16.83
2017-08-29T20:16:19.390Z,15.57
2017-08-29T20:18:46.662Z,15.47
2017-08-29T20:21:13.959Z,16.83
2017-08-29T20:23:41.231Z,21.80
2017-08-29T20:26:08.531Z,18.43
2017-08-29T20:28:35.815Z,13.63
2017-08-29T20:31:03.112Z,14.30
2017-08-29T20:33:30.386Z,15.27
2017-08-29T20:35:57.676Z,20.83
2017-08-29T20:38:24.951Z,15.00
2017-08-29T20:40:52.244Z,17.30
2017-08-29T20:43:19.542Z,17.47
2017-08-29T20:45:46.828Z,13.97
2017-08-29T20:48:14.108Z,17.90
2017-08-29T20:50:41.399Z,15.67
2017-08-29T20:53:08.683Z,21.37
2017-08-29T20:55:35.980Z,25.73
2017-08-29T20:58:03.252Z,16.60
2017-08-29T21:00:30.566Z,17.93
2017-08-29T21:02:57.836Z,16.40
2017-08-29T21:05:25.116Z,16.83
2017-08-29T21:07:52.424Z,15.53
2017-08-29T21:10:19.698Z,15.30
2017-08-29T21:12:47.005Z,21.63
2017-08-29T21:15:14.276Z,26.63
2017-08-29T21:17:41.569Z,16.33
2017-08-29T21:20:08.856Z,18.47
2017-08-29T21:22:36.163Z,14.83
2017-08-29T21:25:03.443Z,21.60
2017-08-29T21:27:30.748Z,19.97
2017-08-29T21:29:58.032Z,16.73
2017-08-29T21:32:25.319Z,17.37
2017-08-29T21:34:52.619Z,18.83
2017-08-29T21:37:19.888Z,16.93
2017-08-29T21:39:47.191Z,19.93
2017-08-29T21:42:14.475Z,16.87
2017-08-29T21:44:41.777Z,17.27
2017-08-29T21:47:09.064Z,17.33
2017-08-29T21:49:36.369Z,22.30
2017-08-29T21:52:03.654Z,16.33
2017-08-29T21:54:30.951Z,17.60
2017-08-29T21:56:58.222Z,17.50
2017-08-29T21:59:25.503Z,18.10
2017-08-29T22:01:52.815Z,17.23
2017-08-29T22:04:20.093Z,18.53
2017-08-29T22:06:47.398Z,15.27
2017-08-29T22:09:14.685Z,16.33
2017-08-29T22:11:41.978Z,14.40
2017-08-29T22:14:09.252Z,18.37
2017-08-29T22:16:36.552Z,23.50
2017-08-29T22:19:03.837Z,16.30
2017-08-29T22:21:31.148Z,15.93
2017-08-29T22:23:58.431Z,17.80
2017-08-29T22:26:25.731Z,15.00
2017-08-29T22:28:53.012Z,14.20
2017-08-29T22:31:20.317Z,16.70
2017-08-29T22:33:47.601Z,17.23
2017-08-29T22:36:14.913Z,18.07
2017-08-29T22:38:42.190Z,23.53
2017-08-29T22:41:09.487Z,21.30
2017-08-29T22:43:36.840Z,15.43
2017-08-29T22:46:04.136Z,20.43
2017-08-29T22:48:31.415Z,14.53
2017-08-29T22:50:58.722Z,16.20
2017-08-29T22:53:25.999Z,18.40
2017-08-29T22:55:53.305Z,14.90
2017-08-29T22:58:20.579Z,16.93
2017-08-29T23:00:47.873Z,15.47
2017-08-29T23:03:15.152Z,15.90
2017-08-29T23:05:42.465Z,16.10
2017-08-29T23:08:09.748Z,14.27
2017-08-29T23:10:37.032Z,17.50
2017-08-29T23:13:04.323Z,23.90
2017-08-29T23:15:31.613Z,14.90
2017-08-29T23:17:58.913Z,15.63
2017-08-29T23:20:26.189Z,14.70
2017-08-29T23:22:53.483Z,16.13
2017-08-29T23:25:20.760Z,15.10
2017-08-29T23:27:48.073Z,17.23
2017-08-29T23:30:15.379Z,16.50
2017-08-29T23:32:42.652Z,15.40
2017-08-29T23:35:09.931Z,15.30
2017-08-29T23:37:37.260Z,17.07
2017-08-29T23:40:04.517Z,15.53
2017-08-29T23:42:31.815Z,16.90
2017-08-29T23:44:59.103Z,14.90
2017-08-29T23:47:26.406Z,15.23
2017-08-29T23:49:53.688Z,15.93
2017-08-29T23:52:20.984Z,15.27
2017-08-29T23:54:48.267Z,18.03
2017-08-29T23:57:15.565Z,17.87
2017-08-29T23:59:42.853Z,22.57
